Time;durP1;ratioP1;P1;durP2;ratioP2;P2;SDS_P1;SDS_P2;PMS_P1;PMS_P2;Temp;Humidity;BMP_temperature;BMP_pressure;BME280_temperature;BME280_humidity;BME280_pressure;Samples;Min_cycle;Max_cycle;Signal;HPM_P1;HPM_P2
2023/09/16 00:00:08;;;;;;;9.93;5.85;;;20.30;84.50;;;;;;10494921;28;20423;-65
2023/09/16 00:05:08;;;;;;;8.02;5.70;;;20.20;84.40;;;;;;10483901;28;20449;-65
2023/09/16 00:10:09;;;;;;;8.40;5.57;;;20.20;84.40;;;;;;10489923;28;20800;-65
2023/09/16 00:15:10;;;;;;;7.05;5.40;;;20.20;84.40;;;;;;10492422;28;20404;-65
2023/09/16 00:20:17;;;;;;;8.05;5.47;;;20.20;84.40;;;;;;10498103;28;20395;-65
2023/09/16 00:25:17;;;;;;;6.53;5.45;;;20.20;84.40;;;;;;10502337;28;20512;-65
2023/09/16 00:30:18;;;;;;;9.10;5.33;;;20.20;84.40;;;;;;10499935;28;20558;-65
2023/09/16 00:35:19;;;;;;;9.03;5.63;;;20.10;84.40;;;;;;10495164;28;20408;-65
2023/09/16 00:40:20;;;;;;;6.25;4.93;;;20.10;84.40;;;;;;10490694;28;20498;-65
2023/09/16 00:45:20;;;;;;;6.72;5.03;;;20.10;84.30;;;;;;10502780;28;20406;-65
2023/09/16 00:50:22;;;;;;;6.68;5.10;;;20.00;84.40;;;;;;10492726;28;21035;-65
2023/09/16 00:55:23;;;;;;;6.55;5.03;;;20.10;84.40;;;;;;10489846;28;20991;-65
2023/09/16 01:00:26;;;;;;;7.07;5.30;;;20.00;84.40;;;;;;10494177;28;20427;-64
2023/09/16 01:05:27;;;;;;;6.40;5.30;;;20.00;84.40;;;;;;10493821;28;20397;-65
2023/09/16 01:10:27;;;;;;;7.70;5.03;;;20.00;84.40;;;;;;10497615;28;20390;-64
2023/09/16 01:15:35;;;;;;;8.10;5.23;;;19.90;84.40;;;;;;10486353;28;20430;-65
2023/09/16 01:20:38;;;;;;;6.07;5.00;;;19.90;84.50;;;;;;10484979;28;20776;-65
2023/09/16 01:25:39;;;;;;;7.73;5.23;;;19.90;84.50;;;;;;10497455;28;20412;-65
2023/09/16 01:30:47;;;;;;;6.20;5.00;;;19.90;84.50;;;;;;10500706;28;20405;-64
2023/09/16 01:35:50;;;;;;;7.20;5.10;;;19.90;84.50;;;;;;10495820;28;20909;-64
2023/09/16 01:40:57;;;;;;;6.35;5.28;;;19.90;84.60;;;;;;10490716;28;20424;-65
2023/09/16 01:45:57;;;;;;;7.60;5.10;;;19.80;84.60;;;;;;10494040;28;20394;-64
2023/09/16 01:51:00;;;;;;;7.53;5.07;;;19.80;84.60;;;;;;10497302;28;21611;-64
2023/09/16 01:56:01;;;;;;;6.67;5.17;;;19.80;84.70;;;;;;10495174;28;20409;-64
2023/09/16 02:01:08;;;;;;;6.80;5.20;;;19.80;84.60;;;;;;10487678;28;20475;-65
2023/09/16 02:06:08;;;;;;;6.38;5.07;;;19.70;84.60;;;;;;10489165;28;21202;-64
2023/09/16 02:11:09;;;;;;;6.57;5.13;;;19.70;84.70;;;;;;10497042;28;20430;-65
2023/09/16 02:16:10;;;;;;;5.67;5.00;;;19.70;84.70;;;;;;10483059;28;20395;-64
2023/09/16 02:21:11;;;;;;;6.85;5.00;;;19.70;84.80;;;;;;10491675;28;20414;-64
2023/09/16 02:26:11;;;;;;;6.15;4.60;;;19.70;84.80;;;;;;10495770;28;20960;-65
2023/09/16 02:31:16;;;;;;;7.85;5.15;;;19.70;84.90;;;;;;10491324;28;20412;-65
2023/09/16 02:36:16;;;;;;;5.67;4.80;;;19.70;85.00;;;;;;10506005;28;20419;-65
2023/09/16 02:41:17;;;;;;;5.20;4.60;;;19.60;84.80;;;;;;10496317;28;20442;-64
2023/09/16 02:46:18;;;;;;;6.97;5.13;;;19.60;84.80;;;;;;10494840;28;20396;-64
2023/09/16 02:51:18;;;;;;;5.90;4.82;;;19.60;84.90;;;;;;10502094;28;20449;-64
2023/09/16 02:56:19;;;;;;;5.97;4.88;;;19.60;84.90;;;;;;10490927;28;20407;-64
2023/09/16 03:01:20;;;;;;;6.47;5.05;;;19.50;84.80;;;;;;10491761;28;20812;-64
2023/09/16 03:06:22;;;;;;;6.35;5.07;;;19.50;84.80;;;;;;10508960;28;20402;-65
2023/09/16 03:11:23;;;;;;;5.75;4.95;;;19.50;85.00;;;;;;10494991;28;20477;-65
2023/09/16 03:16:24;;;;;;;6.17;5.00;;;19.50;85.00;;;;;;10498791;28;20409;-64
2023/09/16 03:21:25;;;;;;;7.10;5.28;;;19.50;84.90;;;;;;10495948;28;20421;-65
2023/09/16 03:26:26;;;;;;;5.85;4.80;;;19.50;84.90;;;;;;10499362;28;20423;-64
2023/09/16 03:31:27;;;;;;;6.03;4.68;;;19.50;85.00;;;;;;10509533;28;20476;-65
2023/09/16 03:36:27;;;;;;;6.60;4.80;;;19.50;85.00;;;;;;10513245;28;21051;-65
2023/09/16 03:41:28;;;;;;;6.00;4.93;;;19.40;85.00;;;;;;10513155;28;20805;-65
2023/09/16 03:46:28;;;;;;;5.93;4.90;;;19.50;85.10;;;;;;10499831;28;20409;-65
2023/09/16 03:51:29;;;;;;;5.87;4.73;;;19.40;85.00;;;;;;10506746;28;20685;-64
2023/09/16 03:56:30;;;;;;;6.17;5.00;;;19.30;85.00;;;;;;10501038;28;20878;-65
2023/09/16 04:01:31;;;;;;;6.00;5.07;;;19.30;85.00;;;;;;10500515;28;20877;-64
2023/09/16 04:06:31;;;;;;;6.32;5.30;;;19.30;85.00;;;;;;10503860;28;20413;-65
2023/09/16 04:11:32;;;;;;;5.70;4.93;;;19.30;85.00;;;;;;10500295;28;20399;-64
2023/09/16 04:16:33;;;;;;;6.55;4.82;;;19.30;85.00;;;;;;10494013;28;20617;-65
2023/09/16 04:21:34;;;;;;;5.95;4.90;;;19.20;85.00;;;;;;10498775;28;20473;-64
2023/09/16 04:26:34;;;;;;;5.20;4.70;;;19.20;85.00;;;;;;10507492;28;20398;-65
2023/09/16 04:31:35;;;;;;;6.03;5.03;;;19.20;85.10;;;;;;10508572;28;20389;-64
2023/09/16 04:36:36;;;;;;;6.40;5.00;;;19.20;85.00;;;;;;10510208;28;20758;-64
2023/09/16 04:41:36;;;;;;;5.68;4.70;;;19.20;85.10;;;;;;10502672;28;20406;-64
2023/09/16 04:46:37;;;;;;;6.03;4.80;;;19.20;85.00;;;;;;10506767;28;20502;-65
2023/09/16 04:51:38;;;;;;;5.57;4.75;;;19.20;85.00;;;;;;10504817;28;20404;-64
2023/09/16 04:56:39;;;;;;;5.82;4.78;;;19.20;85.00;;;;;;10502523;28;20394;-64
2023/09/16 05:01:40;;;;;;;6.20;4.60;;;19.10;85.00;;;;;;10515711;28;20403;-65
2023/09/16 05:06:40;;;;;;;6.07;5.03;;;19.10;84.90;;;;;;10506669;28;20432;-65
2023/09/16 05:11:43;;;;;;;5.75;4.63;;;19.10;84.90;;;;;;10493177;28;20855;-64
2023/09/16 05:16:43;;;;;;;5.30;4.75;;;19.10;84.90;;;;;;10493349;28;20470;-64
2023/09/16 05:21:44;;;;;;;6.70;4.90;;;19.10;84.90;;;;;;10493466;28;20861;-65
2023/09/16 05:26:45;;;;;;;6.10;4.80;;;19.00;84.80;;;;;;10496024;28;20422;-64
2023/09/16 05:31:45;;;;;;;5.57;4.53;;;19.00;84.80;;;;;;10499178;28;20387;-64
2023/09/16 05:36:46;;;;;;;5.53;4.73;;;19.00;84.90;;;;;;10501509;28;20419;-65
2023/09/16 05:41:48;;;;;;;5.50;4.70;;;19.00;85.00;;;;;;10498104;28;20410;-64
2023/09/16 05:46:49;;;;;;;6.28;4.65;;;19.00;85.00;;;;;;10503351;28;20408;-69
2023/09/16 05:51:50;;;;;;;7.03;4.80;;;19.00;85.00;;;;;;10495366;28;20408;-65
2023/09/16 05:56:50;;;;;;;5.27;4.50;;;19.00;85.40;;;;;;10494570;28;20406;-66
2023/09/16 06:01:51;;;;;;;4.87;4.37;;;18.90;85.70;;;;;;10481300;28;20807;-65
2023/09/16 06:06:52;;;;;;;5.00;4.50;;;18.90;85.50;;;;;;10482880;28;20951;-65
2023/09/16 06:11:53;;;;;;;5.53;4.50;;;19.00;85.50;;;;;;10487679;28;20431;-64
2023/09/16 06:16:53;;;;;;;6.07;5.00;;;18.90;86.00;;;;;;10490832;28;20493;-65
2023/09/16 06:21:59;;;;;;;4.85;4.35;;;18.90;85.40;;;;;;10485473;28;20456;-65
2023/09/16 06:27:00;;;;;;;5.00;4.50;;;18.90;85.40;;;;;;10498887;28;20520;-65
2023/09/16 06:32:01;;;;;;;6.00;4.60;;;18.90;85.40;;;;;;10496503;28;20928;-65
2023/09/16 06:37:05;;;;;;;5.50;4.80;;;18.90;85.50;;;;;;10493915;28;20522;-65
2023/09/16 06:42:05;;;;;;;5.83;4.70;;;18.90;85.60;;;;;;10494382;28;20410;-65
2023/09/16 06:47:06;;;;;;;5.35;4.60;;;18.90;85.60;;;;;;10495064;28;20403;-65
2023/09/16 06:52:07;;;;;;;5.45;4.57;;;18.90;86.00;;;;;;10494138;28;20415;-67
2023/09/16 06:57:07;;;;;;;6.90;5.43;;;18.90;86.00;;;;;;10496430;28;20775;-66
2023/09/16 07:02:08;;;;;;;8.18;4.95;;;19.00;86.40;;;;;;10496141;28;21145;-65
2023/09/16 07:07:09;;;;;;;5.75;4.88;;;19.00;86.70;;;;;;10497530;28;20401;-66
2023/09/16 07:12:10;;;;;;;5.50;4.70;;;19.00;86.50;;;;;;10501913;28;20614;-66
2023/09/16 07:17:10;;;;;;;5.50;4.67;;;19.00;86.50;;;;;;10498222;28;20404;-66
2023/09/16 07:22:11;;;;;;;5.83;4.60;;;19.00;86.40;;;;;;10504382;28;20735;-66
2023/09/16 07:27:11;;;;;;;5.30;4.80;;;19.00;86.30;;;;;;10498322;28;20924;-66
2023/09/16 07:32:12;;;;;;;5.30;4.70;;;19.00;86.40;;;;;;10511848;28;20458;-66
2023/09/16 07:37:14;;;;;;;5.63;4.43;;;19.10;86.30;;;;;;10506347;28;20932;-66
2023/09/16 07:42:15;;;;;;;6.23;4.93;;;19.10;86.30;;;;;;10505260;28;20422;-65
2023/09/16 07:47:15;;;;;;;6.07;4.38;;;19.10;86.30;;;;;;10504602;28;20933;-66
2023/09/16 07:52:16;;;;;;;5.30;4.60;;;19.10;86.50;;;;;;10507353;28;20394;-66
2023/09/16 07:57:16;;;;;;;5.80;4.77;;;19.20;86.60;;;;;;10498087;28;20459;-66
2023/09/16 08:02:17;;;;;;;6.17;5.10;;;19.20;86.70;;;;;;10493180;28;20488;-66
2023/09/16 08:07:18;;;;;;;5.57;4.87;;;19.20;86.70;;;;;;10490014;28;20397;-66
2023/09/16 08:12:19;;;;;;;7.00;5.03;;;19.30;86.60;;;;;;10497279;28;20399;-66
2023/09/16 08:17:20;;;;;;;5.47;4.87;;;19.30;86.70;;;;;;10502861;28;20391;-66
2023/09/16 08:22:21;;;;;;;5.70;5.07;;;19.30;86.50;;;;;;10501111;28;20416;-66
2023/09/16 08:27:21;;;;;;;7.00;5.33;;;19.40;86.30;;;;;;10501575;28;20451;-66
2023/09/16 08:32:24;;;;;;;6.05;4.97;;;19.40;86.40;;;;;;10510008;28;20382;-65
2023/09/16 08:37:25;;;;;;;5.65;4.85;;;19.40;86.20;;;;;;10502223;28;20487;-65
2023/09/16 08:42:34;;;;;;;5.82;5.20;;;19.40;86.40;;;;;;10508383;28;20402;-66
2023/09/16 08:47:40;;;;;;;5.53;5.03;;;19.50;86.60;;;;;;10501662;28;20403;-66
2023/09/16 08:52:54;;;;;;;5.47;4.90;;;19.50;86.70;;;;;;10514192;28;20398;-66
2023/09/16 08:58:00;;;;;;;6.60;5.22;;;19.50;86.90;;;;;;10503335;28;20398;-67
2023/09/16 09:03:01;;;;;;;9.60;7.45;;;19.50;86.90;;;;;;10500533;28;20992;-72
2023/09/16 09:08:02;;;;;;;9.93;7.77;;;19.60;91.10;;;;;;10506234;28;20458;-73
2023/09/16 09:13:09;;;;;;;7.32;6.07;;;19.70;92.70;;;;;;10497636;28;20778;-66
2023/09/16 09:18:12;;;;;;;8.18;6.63;;;19.70;91.30;;;;;;10492962;28;21054;-67
2023/09/16 09:23:14;;;;;;;6.13;5.45;;;19.80;90.80;;;;;;10491492;28;20476;-67
2023/09/16 09:28:16;;;;;;;8.03;5.60;;;19.80;90.60;;;;;;10505531;28;20397;-67
2023/09/16 09:33:20;;;;;;;7.57;5.53;;;19.80;90.40;;;;;;10492522;28;20411;-68
2023/09/16 09:38:21;;;;;;;6.72;5.47;;;19.90;90.30;;;;;;10497671;28;20410;-68
2023/09/16 09:43:23;;;;;;;8.70;5.38;;;19.90;90.20;;;;;;10501504;28;20393;-67
2023/09/16 09:48:24;;;;;;;6.43;5.10;;;19.90;90.10;;;;;;10488039;28;20394;-67
2023/09/16 09:53:26;;;;;;;7.10;5.40;;;19.90;90.20;;;;;;10493404;28;20411;-68
2023/09/16 09:58:26;;;;;;;7.50;5.07;;;20.00;90.20;;;;;;10492116;28;20421;-68
2023/09/16 10:03:27;;;;;;;6.33;5.07;;;20.00;90.20;;;;;;10481035;28;20783;-67
2023/09/16 10:08:28;;;;;;;6.43;5.20;;;20.00;90.20;;;;;;10490510;28;20395;-67
2023/09/16 10:13:29;;;;;;;6.27;5.00;;;20.10;90.30;;;;;;10486550;28;20428;-68
2023/09/16 10:18:29;;;;;;;6.82;5.13;;;20.20;90.40;;;;;;10491747;28;20416;-67
2023/09/16 10:23:32;;;;;;;7.43;5.30;;;20.20;90.30;;;;;;10486868;28;20390;-67
2023/09/16 10:28:41;;;;;;;6.63;5.10;;;20.30;90.40;;;;;;10488491;28;20411;-68
2023/09/16 10:33:42;;;;;;;6.68;4.88;;;20.30;90.40;;;;;;10482671;28;20450;-69
2023/09/16 10:38:44;;;;;;;5.60;4.70;;;20.40;90.50;;;;;;10479043;28;20780;-70
2023/09/16 10:43:46;;;;;;;5.85;4.75;;;20.40;90.40;;;;;;10495823;28;20818;-69
2023/09/16 10:48:46;;;;;;;5.32;4.65;;;20.50;90.40;;;;;;10486024;28;20494;-70
2023/09/16 10:53:54;;;;;;;6.27;4.90;;;20.60;90.40;;;;;;10492669;28;20403;-70
2023/09/16 10:59:10;;;;;;;5.82;4.85;;;20.60;90.40;;;;;;10494709;28;20413;-70
2023/09/16 11:04:17;;;;;;;6.03;4.70;;;20.60;90.40;;;;;;10486514;28;20407;-70
2023/09/16 11:09:19;;;;;;;6.10;5.00;;;20.70;90.40;;;;;;10498639;28;20407;-70
2023/09/16 11:14:21;;;;;;;5.88;4.68;;;20.70;90.40;;;;;;10487672;28;20927;-70
2023/09/16 11:19:28;;;;;;;5.63;4.90;;;20.80;90.50;;;;;;10485848;28;20904;-70
2023/09/16 11:24:29;;;;;;;6.75;5.05;;;20.80;90.50;;;;;;10492568;28;20879;-69
2023/09/16 11:29:31;;;;;;;6.30;4.77;;;20.90;90.70;;;;;;10485579;28;20414;-70
2023/09/16 11:34:32;;;;;;;4.77;4.27;;;21.00;90.60;;;;;;10482018;28;20909;-70
2023/09/16 11:39:42;;;;;;;7.05;4.35;;;21.00;90.50;;;;;;10504336;28;20498;-73
2023/09/16 11:44:43;;;;;;;5.32;3.67;;;21.30;91.50;;;;;;10498407;28;20961;-73
2023/09/16 11:49:43;;;;;;;5.23;3.70;;;21.80;87.80;;;;;;10493285;28;20462;-70
2023/09/16 11:54:47;;;;;;;4.80;3.50;;;22.10;88.70;;;;;;10506839;28;20936;-70
2023/09/16 11:59:48;;;;;;;4.20;2.60;;;22.30;87.50;;;;;;10508813;28;20406;-70
2023/09/16 12:04:48;;;;;;;3.60;2.63;;;22.50;83.90;;;;;;10500456;28;20811;-70
2023/09/16 12:09:50;;;;;;;3.70;2.70;;;22.60;82.90;;;;;;10500164;28;20411;-71
2023/09/16 12:14:52;;;;;;;4.47;2.70;;;22.70;83.70;;;;;;10491892;28;20448;-70
2023/09/16 12:19:54;;;;;;;4.55;2.80;;;22.90;83.10;;;;;;10486167;28;20409;-69
2023/09/16 12:24:55;;;;;;;3.63;2.88;;;23.00;82.10;;;;;;10501352;28;20483;-69
2023/09/16 12:29:55;;;;;;;4.93;2.90;;;23.10;83.00;;;;;;10500191;28;20536;-69
2023/09/16 12:35:08;;;;;;;4.25;2.95;;;22.90;82.30;;;;;;10502991;28;20409;-69
2023/09/16 12:40:09;;;;;;;3.95;2.83;;;23.30;82.20;;;;;;10498227;28;20422;-69
2023/09/16 12:45:10;;;;;;;6.45;3.33;;;23.30;82.00;;;;;;10499408;28;20478;-68
2023/09/16 12:50:11;;;;;;;4.60;2.80;;;23.40;82.10;;;;;;10503715;28;20398;-69
2023/09/16 12:55:13;;;;;;;4.70;2.83;;;23.40;82.20;;;;;;10499387;28;20399;-69
2023/09/16 13:00:20;;;;;;;4.00;2.90;;;23.50;82.70;;;;;;10495898;28;20415;-70
2023/09/16 13:05:27;;;;;;;4.13;2.90;;;23.60;82.10;;;;;;10489403;28;20405;-69
2023/09/16 13:10:28;;;;;;;6.03;2.90;;;23.80;81.50;;;;;;10488358;28;20438;-72
2023/09/16 13:15:29;;;;;;;3.58;3.00;;;23.90;81.60;;;;;;10487457;28;20467;-72
2023/09/16 13:20:36;;;;;;;5.78;2.85;;;24.10;81.90;;;;;;10493054;28;20412;-71
2023/09/16 13:25:41;;;;;;;3.30;2.55;;;24.20;80.30;;;;;;10495126;28;20394;-72
2023/09/16 13:30:45;;;;;;;3.67;2.85;;;24.40;78.80;;;;;;10502095;28;20416;-72
2023/09/16 13:35:46;;;;;;;3.80;2.67;;;24.30;78.60;;;;;;10497001;28;20415;-72
2023/09/16 13:40:48;;;;;;;4.20;2.78;;;24.40;80.00;;;;;;10492551;28;20416;-72
2023/09/16 13:45:49;;;;;;;3.90;2.90;;;24.40;80.30;;;;;;10500981;28;20497;-72
2023/09/16 13:50:50;;;;;;;3.40;2.60;;;24.50;78.20;;;;;;10498573;28;20434;-72
2023/09/16 13:55:53;;;;;;;4.20;2.70;;;24.60;76.80;;;;;;10495148;28;20480;-72
2023/09/16 14:00:54;;;;;;;3.80;2.77;;;24.50;77.10;;;;;;10492102;28;20490;-71
2023/09/16 14:05:55;;;;;;;4.57;2.88;;;24.40;75.90;;;;;;10499166;28;20393;-72
2023/09/16 14:10:55;;;;;;;3.83;2.67;;;24.40;77.20;;;;;;10493901;28;20410;-72
2023/09/16 14:15:56;;;;;;;3.40;2.47;;;24.50;75.20;;;;;;10484323;28;20393;-71
2023/09/16 14:20:57;;;;;;;3.42;2.58;;;24.50;75.90;;;;;;10486507;28;20903;-72
2023/09/16 14:25:59;;;;;;;3.60;2.80;;;24.50;74.70;;;;;;10496029;28;20413;-71
2023/09/16 14:31:07;;;;;;;3.20;2.50;;;23.70;74.70;;;;;;10497371;28;20392;-72
2023/09/16 14:36:08;;;;;;;6.32;3.13;;;24.60;74.80;;;;;;10485716;28;20421;-71
2023/09/16 14:41:09;;;;;;;3.60;2.67;;;24.60;76.20;;;;;;10501885;28;20760;-72
2023/09/16 14:46:09;;;;;;;3.78;2.78;;;24.70;74.80;;;;;;10504305;28;20393;-72
2023/09/16 14:51:10;;;;;;;4.50;2.70;;;24.60;74.60;;;;;;10499964;28;20718;-72
2023/09/16 14:56:10;;;;;;;3.30;2.58;;;24.50;74.00;;;;;;10489891;28;20773;-72
2023/09/16 15:01:13;;;;;;;7.00;2.67;;;24.50;76.70;;;;;;10497044;28;20489;-72
2023/09/16 15:06:14;;;;;;;3.67;2.83;;;24.40;75.30;;;;;;10490176;28;20413;-72
2023/09/16 15:11:15;;;;;;;2.90;2.53;;;24.40;76.00;;;;;;10487834;28;20415;-72
2023/09/16 15:16:16;;;;;;;4.60;3.50;;;24.30;76.00;;;;;;10507274;28;20413;-72
2023/09/16 15:21:16;;;;;;;3.70;2.77;;;24.20;77.10;;;;;;10498598;28;20415;-72
2023/09/16 15:26:17;;;;;;;4.97;2.90;;;24.10;77.60;;;;;;10503159;28;20833;-72
2023/09/16 15:31:18;;;;;;;6.30;2.87;;;24.00;80.20;;;;;;10512990;28;20392;-72
2023/09/16 15:36:20;;;;;;;4.32;3.33;;;23.90;81.80;;;;;;10501638;28;20905;-72
2023/09/16 15:41:20;;;;;;;4.40;3.20;;;23.80;80.20;;;;;;10505856;28;20493;-72
2023/09/16 15:46:23;;;;;;;24.03;20.10;;;23.70;80.30;;;;;;10502779;28;20408;-73
2023/09/16 15:51:23;;;;;;;5.80;3.90;;;23.70;81.90;;;;;;10494440;28;20439;-73
2023/09/16 15:56:25;;;;;;;4.30;3.50;;;23.70;80.90;;;;;;10499299;28;20654;-71
2023/09/16 16:01:25;;;;;;;56.40;49.65;;;23.60;83.10;;;;;;10497952;28;20456;-72
2023/09/16 16:06:26;;;;;;;11.60;8.52;;;23.60;83.20;;;;;;10505160;28;20421;-72
2023/09/16 16:11:27;;;;;;;12.45;8.20;;;23.60;84.90;;;;;;10493344;28;20463;-71
2023/09/16 16:16:27;;;;;;;18.70;12.27;;;23.50;83.80;;;;;;10499551;28;20407;-72
2023/09/16 16:21:28;;;;;;;7.07;5.40;;;23.40;83.80;;;;;;10484018;28;20411;-70
2023/09/16 16:26:29;;;;;;;6.50;4.87;;;23.40;83.50;;;;;;10499501;28;20975;-72
2023/09/16 16:31:31;;;;;;;6.10;4.50;;;23.40;84.20;;;;;;10498650;28;20479;-72
2023/09/16 16:36:33;;;;;;;5.63;4.50;;;23.30;85.80;;;;;;10484190;28;20407;-72
2023/09/16 16:41:36;;;;;;;5.37;3.93;;;23.30;87.00;;;;;;10497953;28;20411;-72
2023/09/16 16:46:39;;;;;;;4.57;3.97;;;23.20;86.70;;;;;;10500093;28;20404;-71
2023/09/16 16:51:40;;;;;;;4.93;3.78;;;23.20;88.40;;;;;;10495265;28;20855;-71
2023/09/16 16:56:40;;;;;;;4.50;3.20;;;23.00;88.20;;;;;;10489338;28;20405;-71
2023/09/16 17:01:41;;;;;;;10.63;4.10;;;23.10;89.40;;;;;;10501348;28;20412;-72
2023/09/16 17:06:42;;;;;;;7.93;3.77;;;23.00;90.20;;;;;;10499273;28;20763;-71
2023/09/16 17:11:42;;;;;;;6.47;4.10;;;23.20;90.70;;;;;;10492384;28;20415;-71
2023/09/16 17:16:43;;;;;;;8.38;4.30;;;23.00;90.80;;;;;;10493594;28;20502;-72
2023/09/16 17:21:44;;;;;;;5.90;4.13;;;23.00;90.50;;;;;;10490541;28;20415;-69
2023/09/16 17:26:44;;;;;;;4.80;3.72;;;22.90;90.70;;;;;;10489628;28;20396;-67
2023/09/16 17:31:45;;;;;;;5.50;3.77;;;22.80;90.60;;;;;;10500199;28;20421;-69
2023/09/16 17:36:47;;;;;;;4.73;3.90;;;22.90;90.40;;;;;;10502572;28;20407;-69
2023/09/16 17:41:48;;;;;;;5.18;3.80;;;23.00;90.20;;;;;;10498222;28;20412;-69
2023/09/16 17:46:48;;;;;;;7.10;3.90;;;23.00;90.00;;;;;;10503253;28;20453;-69
2023/09/16 17:51:49;;;;;;;5.67;4.00;;;23.00;90.00;;;;;;10493180;28;20406;-69
2023/09/16 17:56:49;;;;;;;5.20;3.70;;;23.00;89.50;;;;;;10494177;28;20492;-68
2023/09/16 18:01:50;;;;;;;6.30;3.97;;;23.00;89.20;;;;;;10476098;28;20808;-69
2023/09/16 18:06:52;;;;;;;5.83;4.00;;;23.00;89.30;;;;;;10487215;28;20410;-68
2023/09/16 18:11:53;;;;;;;6.87;4.03;;;23.00;89.30;;;;;;10474585;28;20403;-68
2023/09/16 18:16:53;;;;;;;5.90;3.90;;;23.00;89.10;;;;;;10487701;28;20394;-69
2023/09/16 18:21:54;;;;;;;5.00;4.10;;;23.00;89.10;;;;;;10487663;28;20432;-69
2023/09/16 18:26:55;;;;;;;5.33;4.23;;;23.00;89.20;;;;;;10491609;28;20402;-67
2023/09/16 18:31:56;;;;;;;5.95;4.38;;;23.00;89.10;;;;;;10488887;28;20402;-69
2023/09/16 18:36:56;;;;;;;6.07;4.53;;;22.90;88.80;;;;;;10489740;28;20398;-69
2023/09/16 18:41:57;;;;;;;7.20;4.70;;;22.90;88.80;;;;;;10492231;28;20785;-69
2023/09/16 18:46:58;;;;;;;5.40;4.43;;;22.90;88.90;;;;;;10494796;28;20734;-68
2023/09/16 18:51:58;;;;;;;5.93;4.60;;;22.80;88.60;;;;;;10494107;28;20395;-69
2023/09/16 18:56:59;;;;;;;7.35;5.30;;;22.80;88.60;;;;;;10500919;28;20772;-69
2023/09/16 19:02:00;;;;;;;6.88;4.40;;;22.80;88.60;;;;;;10494204;28;20656;-69
2023/09/16 19:07:01;;;;;;;6.53;5.00;;;22.80;88.70;;;;;;10493470;28;20394;-68
2023/09/16 19:12:03;;;;;;;5.85;4.82;;;22.80;88.60;;;;;;10488577;28;20395;-69
2023/09/16 19:17:03;;;;;;;5.68;5.07;;;22.70;88.60;;;;;;10486850;28;20399;-68
2023/09/16 19:22:05;;;;;;;6.53;5.10;;;22.70;88.50;;;;;;10498799;28;20419;-68
2023/09/16 19:27:12;;;;;;;6.18;5.40;;;22.70;88.60;;;;;;10497790;28;20624;-68
2023/09/16 19:32:12;;;;;;;6.72;5.57;;;22.70;88.40;;;;;;10492175;28;20477;-69
2023/09/16 19:37:13;;;;;;;6.22;5.43;;;22.60;88.40;;;;;;10490191;28;20411;-67
2023/09/16 19:42:14;;;;;;;6.15;5.38;;;22.60;88.40;;;;;;10497023;28;20481;-68
2023/09/16 19:47:14;;;;;;;6.78;5.95;;;22.60;88.30;;;;;;10489961;28;20788;-68
2023/09/16 19:52:15;;;;;;;7.00;6.00;;;22.50;88.20;;;;;;10491029;28;20407;-68
2023/09/16 19:57:17;;;;;;;6.53;5.83;;;22.50;88.10;;;;;;10494262;28;20494;-67
2023/09/16 20:02:17;;;;;;;7.27;6.03;;;22.50;88.10;;;;;;10487105;28;20815;-67
2023/09/16 20:07:18;;;;;;;6.53;5.90;;;22.50;88.10;;;;;;10486013;28;20409;-67
2023/09/16 20:12:19;;;;;;;7.90;6.47;;;22.40;88.00;;;;;;10486226;28;20395;-67
2023/09/16 20:17:19;;;;;;;8.23;6.37;;;22.40;87.90;;;;;;10480167;28;20407;-68
2023/09/16 20:22:20;;;;;;;7.13;6.23;;;22.40;87.90;;;;;;10483281;28;20423;-66
2023/09/16 20:27:21;;;;;;;7.37;6.57;;;22.40;88.50;;;;;;10489483;28;20499;-67
2023/09/16 20:32:21;;;;;;;8.63;7.63;;;22.30;87.80;;;;;;10484565;28;20440;-66
2023/09/16 20:37:22;;;;;;;7.83;6.80;;;22.30;87.80;;;;;;10489354;28;20883;-67
2023/09/16 20:42:25;;;;;;;9.10;7.33;;;22.30;87.80;;;;;;10486405;28;20402;-68
2023/09/16 20:47:25;;;;;;;8.23;7.32;;;22.20;87.70;;;;;;10490915;28;20773;-67
2023/09/16 20:52:26;;;;;;;8.93;7.63;;;22.20;87.60;;;;;;10491598;28;20407;-66
2023/09/16 20:57:27;;;;;;;8.73;7.30;;;22.20;87.70;;;;;;10495840;28;20452;-66
2023/09/16 21:02:28;;;;;;;10.77;9.27;;;22.10;87.90;;;;;;10496469;28;20402;-67
2023/09/16 21:07:28;;;;;;;10.40;8.63;;;22.10;87.80;;;;;;10495225;28;20471;-67
2023/09/16 21:12:30;;;;;;;9.27;8.27;;;22.10;87.80;;;;;;10484464;28;20410;-68
2023/09/16 21:17:31;;;;;;;9.87;8.50;;;22.00;87.60;;;;;;10485217;28;20735;-68
2023/09/16 21:22:31;;;;;;;10.50;8.77;;;22.00;87.70;;;;;;10493503;28;20406;-67
2023/09/16 21:27:32;;;;;;;11.17;8.33;;;22.00;87.70;;;;;;10491071;28;20439;-67
2023/09/16 21:32:33;;;;;;;10.33;8.63;;;22.00;87.60;;;;;;10496998;28;21013;-67
2023/09/16 21:37:34;;;;;;;10.60;8.60;;;21.90;87.60;;;;;;10497830;28;20845;-67
2023/09/16 21:42:34;;;;;;;11.10;8.90;;;21.90;87.50;;;;;;10488876;28;20498;-68
2023/09/16 21:47:35;;;;;;;10.93;9.30;;;21.90;87.50;;;;;;10487505;28;20407;-68
2023/09/16 21:52:35;;;;;;;10.77;9.00;;;21.90;87.50;;;;;;10494124;28;20470;-67
2023/09/16 21:57:36;;;;;;;10.07;8.95;;;21.80;87.30;;;;;;10496191;28;20833;-67
2023/09/16 22:02:37;;;;;;;10.85;9.38;;;21.80;87.90;;;;;;10495632;28;20407;-67
2023/09/16 22:07:37;;;;;;;10.97;9.50;;;21.80;87.30;;;;;;10488701;28;20403;-68
2023/09/16 22:12:38;;;;;;;10.77;9.40;;;21.80;87.30;;;;;;10487161;28;20960;-68
2023/09/16 22:17:41;;;;;;;11.43;9.80;;;21.70;87.20;;;;;;10487698;28;20770;-67
2023/09/16 22:22:42;;;;;;;12.57;10.65;;;21.70;87.20;;;;;;10498387;28;21003;-67
2023/09/16 22:27:43;;;;;;;12.20;10.23;;;21.60;87.20;;;;;;10495281;28;20395;-68
2023/09/16 22:32:43;;;;;;;11.00;9.80;;;21.60;87.20;;;;;;10494408;28;20397;-67
2023/09/16 22:37:44;;;;;;;12.00;10.68;;;21.60;87.20;;;;;;10490809;28;20428;-68
2023/09/16 22:42:45;;;;;;;10.88;9.77;;;21.60;87.20;;;;;;10496850;28;20912;-68
2023/09/16 22:47:45;;;;;;;10.33;9.20;;;21.60;87.20;;;;;;10492512;28;20391;-67
2023/09/16 22:52:46;;;;;;;11.80;8.90;;;21.60;87.20;;;;;;10495982;28;20422;-67
2023/09/16 22:57:47;;;;;;;11.10;9.45;;;21.60;87.20;;;;;;10490502;28;20411;-67
2023/09/16 23:02:47;;;;;;;10.90;9.50;;;21.50;87.10;;;;;;10494152;28;20524;-67
2023/09/16 23:07:48;;;;;;;11.35;9.27;;;21.60;87.20;;;;;;10497112;28;20410;-66
2023/09/16 23:12:48;;;;;;;10.90;9.33;;;21.50;87.20;;;;;;10498593;28;20401;-67
2023/09/16 23:17:49;;;;;;;11.23;9.10;;;21.50;87.70;;;;;;10493936;28;20392;-67
2023/09/16 23:22:50;;;;;;;10.70;9.10;;;21.50;87.10;;;;;;10494033;28;21199;-67
2023/09/16 23:27:50;;;;;;;10.53;9.10;;;21.50;87.10;;;;;;10497699;28;20415;-67
2023/09/16 23:32:51;;;;;;;12.00;9.43;;;21.40;87.10;;;;;;10505480;28;20413;-67
2023/09/16 23:37:51;;;;;;;10.47;9.27;;;21.40;87.10;;;;;;10509299;28;20920;-66
2023/09/16 23:42:52;;;;;;;10.60;8.90;;;21.40;87.10;;;;;;10513796;28;20509;-67
2023/09/16 23:47:53;;;;;;;11.80;9.48;;;21.40;87.10;;;;;;10506333;28;20398;-67
2023/09/16 23:52:54;;;;;;;10.03;8.87;;;21.30;87.10;;;;;;10496360;28;20895;-67
2023/09/16 23:57:54;;;;;;;10.73;9.07;;;21.30;87.10;;;;;;10499080;28;20402;-67
